SCQE weather

Quenac Airport
Isla Quenac, Los Lagos Region, Chile

Public forecast

Using degrees Celsius for public forecast. Weather courtesy of forecast.io.

METAR (pilot weather report)

Closest report is Mocopulli Airport, 18.5 nm (34.2 km) WNW. Retrieved 2019/04/22 21:00 UTC (54 minutes ago):

SCPQ 222100Z 14007KT 110V170 9999 BKN020 10/07 Q1020

TAF (pilot weather forecast)

Forecast is more than 6 hours old.

Closest forecast is Mocopulli Airport, 18.5 nm (34.2 km) WNW. Retrieved 2019/04/22 12:00 UTC (10 hours ago):

TAF SCPQ 221106Z 2212/2224 VRB02KT 9999 OVC014 TN07/2212Z TX11/2220Z BECMG 2022/2024 15005KT SCT030